sensor_id;sensor_type;location;lat;lon;timestamp;P1;durP1;ratioP1;P2;durP2;ratioP2
34134;SDS011;20410;55.578;12.968;2023-06-10T00:01:22;4.83;;;1.77;;
34134;SDS011;20410;55.578;12.968;2023-06-10T00:03:49;2.57;;;1.40;;
34134;SDS011;20410;55.578;12.968;2023-06-10T00:06:15;4.00;;;2.40;;
34134;SDS011;20410;55.578;12.968;2023-06-10T00:08:41;3.93;;;1.80;;
34134;SDS011;20410;55.578;12.968;2023-06-10T00:11:07;1.87;;;1.50;;
34134;SDS011;20410;55.578;12.968;2023-06-10T00:13:32;3.03;;;1.63;;
34134;SDS011;20410;55.578;12.968;2023-06-10T00:15:58;2.63;;;1.50;;
34134;SDS011;20410;55.578;12.968;2023-06-10T00:18:23;1.87;;;1.67;;
34134;SDS011;20410;55.578;12.968;2023-06-10T00:20:52;3.00;;;1.73;;
34134;SDS011;20410;55.578;12.968;2023-06-10T00:23:20;1.57;;;1.40;;
34134;SDS011;20410;55.578;12.968;2023-06-10T00:25:46;4.10;;;1.40;;
34134;SDS011;20410;55.578;12.968;2023-06-10T00:28:11;2.70;;;1.40;;
34134;SDS011;20410;55.578;12.968;2023-06-10T00:30:38;2.60;;;1.27;;
34134;SDS011;20410;55.578;12.968;2023-06-10T00:33:04;2.90;;;1.90;;
34134;SDS011;20410;55.578;12.968;2023-06-10T00:35:29;2.13;;;1.77;;
34134;SDS011;20410;55.578;12.968;2023-06-10T00:37:55;2.53;;;1.50;;
34134;SDS011;20410;55.578;12.968;2023-06-10T00:40:21;3.37;;;1.40;;
34134;SDS011;20410;55.578;12.968;2023-06-10T00:42:46;2.73;;;1.47;;
34134;SDS011;20410;55.578;12.968;2023-06-10T00:45:12;2.67;;;1.63;;
34134;SDS011;20410;55.578;12.968;2023-06-10T00:47:38;1.83;;;1.37;;
34134;SDS011;20410;55.578;12.968;2023-06-10T00:50:04;2.70;;;1.30;;
34134;SDS011;20410;55.578;12.968;2023-06-10T00:52:32;3.60;;;1.50;;
34134;SDS011;20410;55.578;12.968;2023-06-10T00:55:00;3.87;;;1.80;;
34134;SDS011;20410;55.578;12.968;2023-06-10T00:57:25;2.07;;;1.47;;
34134;SDS011;20410;55.578;12.968;2023-06-10T00:59:51;2.63;;;1.47;;
34134;SDS011;20410;55.578;12.968;2023-06-10T01:02:17;2.93;;;1.30;;
34134;SDS011;20410;55.578;12.968;2023-06-10T01:04:43;1.97;;;1.63;;
34134;SDS011;20410;55.578;12.968;2023-06-10T01:09:45;2.03;;;1.30;;
34134;SDS011;20410;55.578;12.968;2023-06-10T01:14:43;1.30;;;1.20;;
34134;SDS011;20410;55.578;12.968;2023-06-10T01:17:11;1.80;;;1.40;;
34134;SDS011;20410;55.578;12.968;2023-06-10T01:19:37;1.43;;;1.30;;
34134;SDS011;20410;55.578;12.968;2023-06-10T01:22:03;2.17;;;1.60;;
34134;SDS011;20410;55.578;12.968;2023-06-10T01:24:29;1.23;;;1.00;;
34134;SDS011;20410;55.578;12.968;2023-06-10T01:26:59;3.13;;;1.20;;
34134;SDS011;20410;55.578;12.968;2023-06-10T01:29:43;1.63;;;1.10;;
34134;SDS011;20410;55.578;12.968;2023-06-10T01:32:47;1.97;;;1.50;;
34134;SDS011;20410;55.578;12.968;2023-06-10T01:35:13;3.10;;;1.63;;
34134;SDS011;20410;55.578;12.968;2023-06-10T01:37:39;2.10;;;1.10;;
34134;SDS011;20410;55.578;12.968;2023-06-10T01:40:07;1.63;;;1.53;;
34134;SDS011;20410;55.578;12.968;2023-06-10T01:42:34;1.77;;;1.20;;
34134;SDS011;20410;55.578;12.968;2023-06-10T01:45:00;2.07;;;1.40;;
34134;SDS011;20410;55.578;12.968;2023-06-10T01:47:25;2.03;;;1.53;;
34134;SDS011;20410;55.578;12.968;2023-06-10T01:49:51;2.37;;;1.20;;
34134;SDS011;20410;55.578;12.968;2023-06-10T01:52:17;3.37;;;1.20;;
34134;SDS011;20410;55.578;12.968;2023-06-10T01:54:42;1.47;;;1.20;;
34134;SDS011;20410;55.578;12.968;2023-06-10T01:57:08;2.20;;;1.20;;
34134;SDS011;20410;55.578;12.968;2023-06-10T01:59:34;1.93;;;1.47;;
34134;SDS011;20410;55.578;12.968;2023-06-10T02:02:01;2.07;;;1.40;;
34134;SDS011;20410;55.578;12.968;2023-06-10T02:04:27;1.33;;;1.23;;
34134;SDS011;20410;55.578;12.968;2023-06-10T02:06:52;1.87;;;1.50;;
34134;SDS011;20410;55.578;12.968;2023-06-10T02:09:18;2.80;;;1.40;;
34134;SDS011;20410;55.578;12.968;2023-06-10T02:11:44;5.80;;;1.40;;
34134;SDS011;20410;55.578;12.968;2023-06-10T02:14:09;1.77;;;1.40;;
34134;SDS011;20410;55.578;12.968;2023-06-10T02:16:35;1.60;;;1.17;;
34134;SDS011;20410;55.578;12.968;2023-06-10T02:19:00;2.90;;;1.90;;
34134;SDS011;20410;55.578;12.968;2023-06-10T02:21:27;4.27;;;1.80;;
34134;SDS011;20410;55.578;12.968;2023-06-10T02:23:53;1.50;;;1.33;;
34134;SDS011;20410;55.578;12.968;2023-06-10T02:26:18;1.53;;;1.43;;
34134;SDS011;20410;55.578;12.968;2023-06-10T02:28:45;2.27;;;1.50;;
34134;SDS011;20410;55.578;12.968;2023-06-10T02:31:10;2.97;;;1.43;;
34134;SDS011;20410;55.578;12.968;2023-06-10T02:33:36;1.73;;;1.20;;
34134;SDS011;20410;55.578;12.968;2023-06-10T02:36:05;2.60;;;1.70;;
34134;SDS011;20410;55.578;12.968;2023-06-10T02:38:31;4.03;;;1.50;;
34134;SDS011;20410;55.578;12.968;2023-06-10T02:40:56;3.00;;;1.47;;
34134;SDS011;20410;55.578;12.968;2023-06-10T02:43:22;2.40;;;1.70;;
34134;SDS011;20410;55.578;12.968;2023-06-10T02:45:47;1.50;;;1.40;;
34134;SDS011;20410;55.578;12.968;2023-06-10T02:48:13;4.43;;;1.60;;
34134;SDS011;20410;55.578;12.968;2023-06-10T02:50:39;2.97;;;1.80;;
34134;SDS011;20410;55.578;12.968;2023-06-10T02:53:05;2.93;;;1.40;;
34134;SDS011;20410;55.578;12.968;2023-06-10T02:55:31;1.77;;;1.40;;
34134;SDS011;20410;55.578;12.968;2023-06-10T02:57:57;2.17;;;1.40;;
34134;SDS011;20410;55.578;12.968;2023-06-10T03:00:23;1.50;;;1.40;;
34134;SDS011;20410;55.578;12.968;2023-06-10T03:02:48;1.57;;;1.43;;
34134;SDS011;20410;55.578;12.968;2023-06-10T03:05:14;1.90;;;1.70;;
34134;SDS011;20410;55.578;12.968;2023-06-10T03:07:39;1.60;;;1.50;;
34134;SDS011;20410;55.578;12.968;2023-06-10T03:10:05;3.00;;;1.40;;
34134;SDS011;20410;55.578;12.968;2023-06-10T03:12:31;2.47;;;1.40;;
34134;SDS011;20410;55.578;12.968;2023-06-10T03:14:57;2.23;;;1.43;;
34134;SDS011;20410;55.578;12.968;2023-06-10T03:17:23;3.20;;;1.47;;
34134;SDS011;20410;55.578;12.968;2023-06-10T03:19:49;2.77;;;1.43;;
34134;SDS011;20410;55.578;12.968;2023-06-10T03:22:17;4.30;;;1.60;;
34134;SDS011;20410;55.578;12.968;2023-06-10T03:24:42;2.67;;;1.33;;
34134;SDS011;20410;55.578;12.968;2023-06-10T03:27:11;2.33;;;1.40;;
34134;SDS011;20410;55.578;12.968;2023-06-10T03:29:38;3.67;;;1.77;;
34134;SDS011;20410;55.578;12.968;2023-06-10T03:32:04;3.20;;;1.37;;
34134;SDS011;20410;55.578;12.968;2023-06-10T03:34:29;2.67;;;1.70;;
34134;SDS011;20410;55.578;12.968;2023-06-10T03:36:55;2.97;;;1.57;;
34134;SDS011;20410;55.578;12.968;2023-06-10T03:39:22;3.13;;;1.63;;
34134;SDS011;20410;55.578;12.968;2023-06-10T03:41:48;1.47;;;1.30;;
34134;SDS011;20410;55.578;12.968;2023-06-10T03:44:17;2.50;;;1.50;;
34134;SDS011;20410;55.578;12.968;2023-06-10T03:46:42;2.90;;;1.70;;
34134;SDS011;20410;55.578;12.968;2023-06-10T03:49:08;2.73;;;1.50;;
34134;SDS011;20410;55.578;12.968;2023-06-10T03:51:34;2.40;;;1.60;;
34134;SDS011;20410;55.578;12.968;2023-06-10T03:54:00;3.37;;;1.63;;
34134;SDS011;20410;55.578;12.968;2023-06-10T03:56:26;1.63;;;1.33;;
34134;SDS011;20410;55.578;12.968;2023-06-10T03:58:53;3.53;;;1.50;;
34134;SDS011;20410;55.578;12.968;2023-06-10T04:01:19;3.00;;;1.40;;
34134;SDS011;20410;55.578;12.968;2023-06-10T04:03:46;4.03;;;1.43;;
34134;SDS011;20410;55.578;12.968;2023-06-10T04:06:14;1.90;;;1.33;;
34134;SDS011;20410;55.578;12.968;2023-06-10T04:08:40;2.50;;;1.50;;
34134;SDS011;20410;55.578;12.968;2023-06-10T04:11:06;3.07;;;1.87;;
34134;SDS011;20410;55.578;12.968;2023-06-10T04:13:32;2.70;;;1.57;;
34134;SDS011;20410;55.578;12.968;2023-06-10T04:15:57;3.07;;;1.60;;
34134;SDS011;20410;55.578;12.968;2023-06-10T04:18:23;2.80;;;1.40;;
34134;SDS011;20410;55.578;12.968;2023-06-10T04:20:48;3.00;;;1.57;;
34134;SDS011;20410;55.578;12.968;2023-06-10T04:23:14;4.57;;;1.50;;
34134;SDS011;20410;55.578;12.968;2023-06-10T04:25:40;2.30;;;1.50;;
34134;SDS011;20410;55.578;12.968;2023-06-10T04:28:05;2.70;;;1.83;;
34134;SDS011;20410;55.578;12.968;2023-06-10T04:30:31;3.50;;;1.53;;
34134;SDS011;20410;55.578;12.968;2023-06-10T04:32:57;3.93;;;1.70;;
34134;SDS011;20410;55.578;12.968;2023-06-10T04:35:22;4.13;;;1.67;;
34134;SDS011;20410;55.578;12.968;2023-06-10T04:37:48;2.93;;;1.63;;
34134;SDS011;20410;55.578;12.968;2023-06-10T04:40:14;1.83;;;1.50;;
34134;SDS011;20410;55.578;12.968;2023-06-10T04:42:40;2.57;;;1.67;;
34134;SDS011;20410;55.578;12.968;2023-06-10T04:45:06;3.30;;;1.60;;
34134;SDS011;20410;55.578;12.968;2023-06-10T04:47:33;2.63;;;1.40;;
34134;SDS011;20410;55.578;12.968;2023-06-10T04:49:59;4.27;;;1.50;;
34134;SDS011;20410;55.578;12.968;2023-06-10T04:52:26;3.13;;;2.00;;
34134;SDS011;20410;55.578;12.968;2023-06-10T04:54:52;6.30;;;1.80;;
34134;SDS011;20410;55.578;12.968;2023-06-10T04:57:18;4.00;;;2.00;;
34134;SDS011;20410;55.578;12.968;2023-06-10T04:59:45;5.20;;;1.80;;
34134;SDS011;20410;55.578;12.968;2023-06-10T05:02:11;2.83;;;1.73;;
34134;SDS011;20410;55.578;12.968;2023-06-10T05:04:36;6.23;;;1.73;;
34134;SDS011;20410;55.578;12.968;2023-06-10T05:07:02;3.33;;;1.67;;
34134;SDS011;20410;55.578;12.968;2023-06-10T05:09:28;2.63;;;1.63;;
34134;SDS011;20410;55.578;12.968;2023-06-10T05:11:55;2.37;;;1.70;;
34134;SDS011;20410;55.578;12.968;2023-06-10T05:14:21;2.37;;;1.70;;
34134;SDS011;20410;55.578;12.968;2023-06-10T05:16:47;3.73;;;1.67;;
34134;SDS011;20410;55.578;12.968;2023-06-10T05:19:13;4.40;;;1.93;;
34134;SDS011;20410;55.578;12.968;2023-06-10T05:21:41;3.57;;;1.60;;
34134;SDS011;20410;55.578;12.968;2023-06-10T05:24:06;3.57;;;1.50;;
34134;SDS011;20410;55.578;12.968;2023-06-10T05:26:32;3.70;;;1.37;;
34134;SDS011;20410;55.578;12.968;2023-06-10T05:29:02;2.77;;;1.50;;
34134;SDS011;20410;55.578;12.968;2023-06-10T05:31:28;2.53;;;1.50;;
34134;SDS011;20410;55.578;12.968;2023-06-10T05:33:53;4.73;;;1.43;;
34134;SDS011;20410;55.578;12.968;2023-06-10T05:36:19;3.07;;;1.43;;
34134;SDS011;20410;55.578;12.968;2023-06-10T05:38:45;5.40;;;1.70;;
34134;SDS011;20410;55.578;12.968;2023-06-10T05:41:11;4.50;;;1.70;;
34134;SDS011;20410;55.578;12.968;2023-06-10T05:43:36;7.23;;;1.53;;
34134;SDS011;20410;55.578;12.968;2023-06-10T05:46:02;3.90;;;1.67;;
34134;SDS011;20410;55.578;12.968;2023-06-10T05:48:27;4.60;;;1.50;;
34134;SDS011;20410;55.578;12.968;2023-06-10T05:50:53;4.47;;;1.70;;
34134;SDS011;20410;55.578;12.968;2023-06-10T05:53:19;4.00;;;1.40;;
34134;SDS011;20410;55.578;12.968;2023-06-10T05:55:44;2.03;;;1.60;;
34134;SDS011;20410;55.578;12.968;2023-06-10T05:58:11;5.53;;;1.50;;
34134;SDS011;20410;55.578;12.968;2023-06-10T06:00:38;2.97;;;1.40;;
34134;SDS011;20410;55.578;12.968;2023-06-10T06:03:06;2.30;;;1.37;;
34134;SDS011;20410;55.578;12.968;2023-06-10T06:05:33;1.90;;;1.30;;
34134;SDS011;20410;55.578;12.968;2023-06-10T06:08:09;4.37;;;1.77;;
34134;SDS011;20410;55.578;12.968;2023-06-10T06:10:35;4.00;;;1.47;;
34134;SDS011;20410;55.578;12.968;2023-06-10T06:13:01;3.77;;;1.50;;
34134;SDS011;20410;55.578;12.968;2023-06-10T06:15:27;5.27;;;1.57;;
34134;SDS011;20410;55.578;12.968;2023-06-10T06:17:53;1.77;;;1.27;;
34134;SDS011;20410;55.578;12.968;2023-06-10T06:20:19;4.90;;;1.60;;
34134;SDS011;20410;55.578;12.968;2023-06-10T06:22:45;3.50;;;1.50;;
34134;SDS011;20410;55.578;12.968;2023-06-10T06:25:10;3.33;;;1.40;;
34134;SDS011;20410;55.578;12.968;2023-06-10T06:27:36;3.22;;;1.40;;
34134;SDS011;20410;55.578;12.968;2023-06-10T06:30:01;3.67;;;1.60;;
34134;SDS011;20410;55.578;12.968;2023-06-10T06:32:27;2.87;;;1.70;;
34134;SDS011;20410;55.578;12.968;2023-06-10T06:34:53;2.40;;;1.20;;
34134;SDS011;20410;55.578;12.968;2023-06-10T06:37:22;4.53;;;1.60;;
34134;SDS011;20410;55.578;12.968;2023-06-10T06:39:52;3.63;;;1.50;;
34134;SDS011;20410;55.578;12.968;2023-06-10T06:42:18;3.10;;;1.52;;
34134;SDS011;20410;55.578;12.968;2023-06-10T06:44:45;3.88;;;1.60;;
34134;SDS011;20410;55.578;12.968;2023-06-10T06:47:11;5.18;;;1.50;;
34134;SDS011;20410;55.578;12.968;2023-06-10T06:49:37;2.83;;;1.35;;
34134;SDS011;20410;55.578;12.968;2023-06-10T06:52:03;6.18;;;1.83;;
34134;SDS011;20410;55.578;12.968;2023-06-10T06:54:29;4.25;;;1.40;;
34134;SDS011;20410;55.578;12.968;2023-06-10T06:56:56;3.22;;;1.40;;
34134;SDS011;20410;55.578;12.968;2023-06-10T06:59:22;5.68;;;1.40;;
34134;SDS011;20410;55.578;12.968;2023-06-10T07:01:47;2.70;;;1.80;;
34134;SDS011;20410;55.578;12.968;2023-06-10T07:04:14;3.50;;;1.20;;
34134;SDS011;20410;55.578;12.968;2023-06-10T07:06:40;2.25;;;1.50;;
34134;SDS011;20410;55.578;12.968;2023-06-10T07:09:09;3.17;;;1.70;;
34134;SDS011;20410;55.578;12.968;2023-06-10T07:11:35;4.72;;;1.73;;
34134;SDS011;20410;55.578;12.968;2023-06-10T07:14:00;3.47;;;1.63;;
34134;SDS011;20410;55.578;12.968;2023-06-10T07:16:26;2.47;;;1.38;;
34134;SDS011;20410;55.578;12.968;2023-06-10T07:18:52;2.95;;;1.52;;
34134;SDS011;20410;55.578;12.968;2023-06-10T07:21:18;5.13;;;1.52;;
34134;SDS011;20410;55.578;12.968;2023-06-10T07:23:44;2.00;;;1.40;;
34134;SDS011;20410;55.578;12.968;2023-06-10T07:26:10;4.32;;;1.50;;
34134;SDS011;20410;55.578;12.968;2023-06-10T07:28:38;2.72;;;1.60;;
34134;SDS011;20410;55.578;12.968;2023-06-10T07:31:04;8.45;;;1.60;;
34134;SDS011;20410;55.578;12.968;2023-06-10T07:33:30;2.92;;;1.40;;
34134;SDS011;20410;55.578;12.968;2023-06-10T07:35:55;2.42;;;1.60;;
34134;SDS011;20410;55.578;12.968;2023-06-10T07:38:21;4.93;;;1.85;;
34134;SDS011;20410;55.578;12.968;2023-06-10T07:40:46;9.25;;;1.85;;
34134;SDS011;20410;55.578;12.968;2023-06-10T07:43:12;4.18;;;1.60;;
34134;SDS011;20410;55.578;12.968;2023-06-10T07:45:41;2.83;;;1.70;;
34134;SDS011;20410;55.578;12.968;2023-06-10T07:48:06;2.60;;;1.67;;
34134;SDS011;20410;55.578;12.968;2023-06-10T07:50:32;4.00;;;1.50;;
34134;SDS011;20410;55.578;12.968;2023-06-10T07:52:58;4.18;;;1.45;;
34134;SDS011;20410;55.578;12.968;2023-06-10T07:55:24;3.92;;;1.50;;
34134;SDS011;20410;55.578;12.968;2023-06-10T07:57:51;5.40;;;1.50;;
34134;SDS011;20410;55.578;12.968;2023-06-10T08:00:17;6.43;;;1.40;;
34134;SDS011;20410;55.578;12.968;2023-06-10T08:02:43;5.32;;;1.70;;
34134;SDS011;20410;55.578;12.968;2023-06-10T08:05:08;3.20;;;1.60;;
34134;SDS011;20410;55.578;12.968;2023-06-10T08:07:34;4.10;;;1.20;;
34134;SDS011;20410;55.578;12.968;2023-06-10T08:10:01;3.08;;;1.58;;
34134;SDS011;20410;55.578;12.968;2023-06-10T08:12:27;3.58;;;1.27;;
34134;SDS011;20410;55.578;12.968;2023-06-10T08:14:53;3.90;;;1.48;;
34134;SDS011;20410;55.578;12.968;2023-06-10T08:17:20;4.65;;;1.75;;
34134;SDS011;20410;55.578;12.968;2023-06-10T08:19:45;2.70;;;1.40;;
34134;SDS011;20410;55.578;12.968;2023-06-10T08:22:11;4.40;;;1.60;;
34134;SDS011;20410;55.578;12.968;2023-06-10T08:24:37;5.70;;;1.83;;
34134;SDS011;20410;55.578;12.968;2023-06-10T08:27:02;2.15;;;1.23;;
34134;SDS011;20410;55.578;12.968;2023-06-10T08:29:28;3.42;;;1.27;;
34134;SDS011;20410;55.578;12.968;2023-06-10T08:31:56;5.40;;;1.73;;
34134;SDS011;20410;55.578;12.968;2023-06-10T08:34:22;4.43;;;1.50;;
34134;SDS011;20410;55.578;12.968;2023-06-10T08:36:47;2.95;;;1.60;;
34134;SDS011;20410;55.578;12.968;2023-06-10T08:39:18;6.55;;;1.90;;
34134;SDS011;20410;55.578;12.968;2023-06-10T08:41:44;4.10;;;1.50;;
34134;SDS011;20410;55.578;12.968;2023-06-10T08:44:27;3.08;;;1.52;;
34134;SDS011;20410;55.578;12.968;2023-06-10T08:46:55;3.17;;;1.40;;
34134;SDS011;20410;55.578;12.968;2023-06-10T08:49:23;4.03;;;1.50;;
34134;SDS011;20410;55.578;12.968;2023-06-10T08:51:51;4.28;;;1.50;;
34134;SDS011;20410;55.578;12.968;2023-06-10T08:54:25;5.45;;;2.00;;
34134;SDS011;20410;55.578;12.968;2023-06-10T08:56:55;3.67;;;1.70;;
34134;SDS011;20410;55.578;12.968;2023-06-10T08:59:22;9.88;;;1.77;;
34134;SDS011;20410;55.578;12.968;2023-06-10T09:01:50;4.10;;;1.80;;
34134;SDS011;20410;55.578;12.968;2023-06-10T09:04:16;6.30;;;1.70;;
34134;SDS011;20410;55.578;12.968;2023-06-10T09:06:43;4.50;;;1.70;;
34134;SDS011;20410;55.578;12.968;2023-06-10T09:09:09;5.82;;;1.90;;
34134;SDS011;20410;55.578;12.968;2023-06-10T09:11:36;3.03;;;1.85;;
34134;SDS011;20410;55.578;12.968;2023-06-10T09:14:02;8.75;;;2.28;;
34134;SDS011;20410;55.578;12.968;2023-06-10T09:16:28;4.00;;;1.65;;
34134;SDS011;20410;55.578;12.968;2023-06-10T09:18:54;6.55;;;1.42;;
34134;SDS011;20410;55.578;12.968;2023-06-10T09:21:23;3.33;;;1.60;;
34134;SDS011;20410;55.578;12.968;2023-06-10T09:23:50;4.75;;;1.60;;
34134;SDS011;20410;55.578;12.968;2023-06-10T09:26:16;4.75;;;1.60;;
34134;SDS011;20410;55.578;12.968;2023-06-10T09:28:48;3.10;;;1.70;;
34134;SDS011;20410;55.578;12.968;2023-06-10T09:31:16;4.78;;;1.55;;
34134;SDS011;20410;55.578;12.968;2023-06-10T09:33:43;4.28;;;1.60;;
34134;SDS011;20410;55.578;12.968;2023-06-10T09:36:10;4.78;;;2.10;;
34134;SDS011;20410;55.578;12.968;2023-06-10T09:38:36;3.78;;;1.77;;
34134;SDS011;20410;55.578;12.968;2023-06-10T09:41:02;5.30;;;1.80;;
34134;SDS011;20410;55.578;12.968;2023-06-10T09:43:42;6.95;;;1.80;;
34134;SDS011;20410;55.578;12.968;2023-06-10T09:46:15;5.55;;;1.67;;
34134;SDS011;20410;55.578;12.968;2023-06-10T09:48:42;5.80;;;2.08;;
34134;SDS011;20410;55.578;12.968;2023-06-10T09:51:09;5.80;;;1.75;;
34134;SDS011;20410;55.578;12.968;2023-06-10T09:53:35;5.18;;;1.80;;
34134;SDS011;20410;55.578;12.968;2023-06-10T09:56:01;6.53;;;1.98;;
34134;SDS011;20410;55.578;12.968;2023-06-10T09:58:34;6.85;;;2.10;;
34134;SDS011;20410;55.578;12.968;2023-06-10T10:01:04;6.65;;;1.90;;
34134;SDS011;20410;55.578;12.968;2023-06-10T10:03:30;5.55;;;2.05;;
34134;SDS011;20410;55.578;12.968;2023-06-10T10:05:59;4.43;;;2.10;;
34134;SDS011;20410;55.578;12.968;2023-06-10T10:08:26;5.10;;;2.00;;
34134;SDS011;20410;55.578;12.968;2023-06-10T10:10:51;7.35;;;1.98;;
34134;SDS011;20410;55.578;12.968;2023-06-10T10:13:17;6.53;;;1.90;;
34134;SDS011;20410;55.578;12.968;2023-06-10T10:15:43;6.63;;;1.80;;
34134;SDS011;20410;55.578;12.968;2023-06-10T10:18:10;2.90;;;1.55;;
34134;SDS011;20410;55.578;12.968;2023-06-10T10:20:51;5.95;;;1.80;;
34134;SDS011;20410;55.578;12.968;2023-06-10T10:23:21;3.70;;;1.50;;
34134;SDS011;20410;55.578;12.968;2023-06-10T10:25:54;5.68;;;1.60;;
34134;SDS011;20410;55.578;12.968;2023-06-10T10:28:20;7.43;;;2.20;;
34134;SDS011;20410;55.578;12.968;2023-06-10T10:30:49;4.75;;;1.80;;
34134;SDS011;20410;55.578;12.968;2023-06-10T10:33:36;5.97;;;1.83;;
34134;SDS011;20410;55.578;12.968;2023-06-10T10:36:13;5.00;;;2.00;;
34134;SDS011;20410;55.578;12.968;2023-06-10T10:38:39;7.30;;;2.10;;
34134;SDS011;20410;55.578;12.968;2023-06-10T10:41:06;4.15;;;1.88;;
34134;SDS011;20410;55.578;12.968;2023-06-10T10:43:33;9.18;;;2.00;;
34134;SDS011;20410;55.578;12.968;2023-06-10T10:45:59;6.60;;;1.83;;
34134;SDS011;20410;55.578;12.968;2023-06-10T10:48:26;8.18;;;2.10;;
34134;SDS011;20410;55.578;12.968;2023-06-10T10:50:58;9.00;;;2.30;;
34134;SDS011;20410;55.578;12.968;2023-06-10T10:53:24;6.38;;;2.30;;
34134;SDS011;20410;55.578;12.968;2023-06-10T10:58:30;4.97;;;1.98;;
34134;SDS011;20410;55.578;12.968;2023-06-10T11:00:57;5.63;;;1.90;;
34134;SDS011;20410;55.578;12.968;2023-06-10T11:03:24;4.55;;;2.13;;
34134;SDS011;20410;55.578;12.968;2023-06-10T11:05:56;6.68;;;1.80;;
34134;SDS011;20410;55.578;12.968;2023-06-10T11:10:57;8.52;;;2.33;;
34134;SDS011;20410;55.578;12.968;2023-06-10T11:13:23;8.52;;;2.40;;
34134;SDS011;20410;55.578;12.968;2023-06-10T11:15:50;6.57;;;2.22;;
34134;SDS011;20410;55.578;12.968;2023-06-10T11:18:49;5.22;;;2.45;;
34134;SDS011;20410;55.578;12.968;2023-06-10T11:21:08;8.57;;;2.28;;
34134;SDS011;20410;55.578;12.968;2023-06-10T11:23:35;6.40;;;2.20;;
34134;SDS011;20410;55.578;12.968;2023-06-10T11:26:14;8.40;;;2.33;;
34134;SDS011;20410;55.578;12.968;2023-06-10T11:31:19;6.97;;;2.20;;
34134;SDS011;20410;55.578;12.968;2023-06-10T11:33:52;6.20;;;2.38;;
34134;SDS011;20410;55.578;12.968;2023-06-10T11:36:19;6.57;;;2.40;;
34134;SDS011;20410;55.578;12.968;2023-06-10T11:38:45;10.07;;;2.60;;
34134;SDS011;20410;55.578;12.968;2023-06-10T11:41:11;9.48;;;2.53;;
34134;SDS011;20410;55.578;12.968;2023-06-10T11:43:40;8.73;;;2.50;;
34134;SDS011;20410;55.578;12.968;2023-06-10T11:46:10;6.13;;;2.38;;
34134;SDS011;20410;55.578;12.968;2023-06-10T11:48:36;5.43;;;2.15;;
34134;SDS011;20410;55.578;12.968;2023-06-10T11:51:05;7.15;;;2.35;;
34134;SDS011;20410;55.578;12.968;2023-06-10T11:53:34;6.93;;;2.58;;
34134;SDS011;20410;55.578;12.968;2023-06-10T11:56:00;7.38;;;2.63;;
34134;SDS011;20410;55.578;12.968;2023-06-10T11:58:25;6.55;;;2.35;;
34134;SDS011;20410;55.578;12.968;2023-06-10T12:00:52;3.92;;;2.30;;
34134;SDS011;20410;55.578;12.968;2023-06-10T12:03:18;6.60;;;2.50;;
34134;SDS011;20410;55.578;12.968;2023-06-10T12:05:57;7.15;;;2.78;;
34134;SDS011;20410;55.578;12.968;2023-06-10T12:08:24;7.90;;;2.25;;
34134;SDS011;20410;55.578;12.968;2023-06-10T12:10:50;5.00;;;2.25;;
34134;SDS011;20410;55.578;12.968;2023-06-10T12:13:16;8.20;;;2.15;;
34134;SDS011;20410;55.578;12.968;2023-06-10T12:15:44;6.43;;;2.45;;
34134;SDS011;20410;55.578;12.968;2023-06-10T12:20:43;5.03;;;2.40;;
34134;SDS011;20410;55.578;12.968;2023-06-10T12:23:09;7.68;;;2.50;;
34134;SDS011;20410;55.578;12.968;2023-06-10T12:25:36;7.95;;;2.30;;
34134;SDS011;20410;55.578;12.968;2023-06-10T12:28:02;8.43;;;2.50;;
34134;SDS011;20410;55.578;12.968;2023-06-10T12:30:27;10.00;;;2.40;;
34134;SDS011;20410;55.578;12.968;2023-06-10T12:32:54;8.80;;;2.33;;
34134;SDS011;20410;55.578;12.968;2023-06-10T12:35:23;4.70;;;2.15;;
34134;SDS011;20410;55.578;12.968;2023-06-10T12:40:26;6.97;;;2.20;;
34134;SDS011;20410;55.578;12.968;2023-06-10T12:42:53;9.23;;;1.90;;
34134;SDS011;20410;55.578;12.968;2023-06-10T12:48:07;6.53;;;2.42;;
34134;SDS011;20410;55.578;12.968;2023-06-10T12:50:35;11.75;;;2.75;;
34134;SDS011;20410;55.578;12.968;2023-06-10T12:53:04;4.97;;;1.90;;
34134;SDS011;20410;55.578;12.968;2023-06-10T12:55:31;14.77;;;2.42;;
34134;SDS011;20410;55.578;12.968;2023-06-10T12:57:57;6.88;;;2.47;;
34134;SDS011;20410;55.578;12.968;2023-06-10T13:00:23;8.38;;;2.13;;
34134;SDS011;20410;55.578;12.968;2023-06-10T13:02:55;9.45;;;2.30;;
34134;SDS011;20410;55.578;12.968;2023-06-10T13:05:21;9.68;;;2.10;;
34134;SDS011;20410;55.578;12.968;2023-06-10T13:07:47;6.13;;;2.20;;
34134;SDS011;20410;55.578;12.968;2023-06-10T13:10:13;6.32;;;2.60;;
34134;SDS011;20410;55.578;12.968;2023-06-10T13:12:41;7.68;;;2.13;;
34134;SDS011;20410;55.578;12.968;2023-06-10T13:15:07;4.13;;;2.80;;
34134;SDS011;20410;55.578;12.968;2023-06-10T13:17:33;2.70;;;1.75;;
34134;SDS011;20410;55.578;12.968;2023-06-10T13:19:59;4.07;;;1.77;;
34134;SDS011;20410;55.578;12.968;2023-06-10T13:22:26;2.88;;;2.00;;
34134;SDS011;20410;55.578;12.968;2023-06-10T13:24:52;5.50;;;1.88;;
34134;SDS011;20410;55.578;12.968;2023-06-10T13:27:17;3.00;;;1.63;;
34134;SDS011;20410;55.578;12.968;2023-06-10T13:29:43;6.57;;;2.30;;
34134;SDS011;20410;55.578;12.968;2023-06-10T13:32:08;10.02;;;2.05;;
34134;SDS011;20410;55.578;12.968;2023-06-10T13:34:35;6.25;;;1.80;;
34134;SDS011;20410;55.578;12.968;2023-06-10T13:37:01;8.88;;;2.42;;
34134;SDS011;20410;55.578;12.968;2023-06-10T13:39:28;5.95;;;2.00;;
34134;SDS011;20410;55.578;12.968;2023-06-10T13:41:54;6.43;;;2.20;;
34134;SDS011;20410;55.578;12.968;2023-06-10T13:44:20;4.85;;;2.00;;
34134;SDS011;20410;55.578;12.968;2023-06-10T13:46:45;6.05;;;1.90;;
34134;SDS011;20410;55.578;12.968;2023-06-10T13:49:11;7.95;;;1.80;;
34134;SDS011;20410;55.578;12.968;2023-06-10T13:51:37;6.25;;;1.90;;
34134;SDS011;20410;55.578;12.968;2023-06-10T13:54:03;4.60;;;1.77;;
34134;SDS011;20410;55.578;12.968;2023-06-10T13:56:28;2.63;;;1.85;;
34134;SDS011;20410;55.578;12.968;2023-06-10T13:58:54;2.70;;;1.60;;
34134;SDS011;20410;55.578;12.968;2023-06-10T14:01:19;7.20;;;1.95;;
34134;SDS011;20410;55.578;12.968;2023-06-10T14:03:45;7.70;;;1.70;;
34134;SDS011;20410;55.578;12.968;2023-06-10T14:06:11;5.35;;;2.00;;
34134;SDS011;20410;55.578;12.968;2023-06-10T14:08:43;6.65;;;2.10;;
34134;SDS011;20410;55.578;12.968;2023-06-10T14:11:09;5.47;;;2.10;;
34134;SDS011;20410;55.578;12.968;2023-06-10T14:13:34;5.53;;;2.00;;
34134;SDS011;20410;55.578;12.968;2023-06-10T14:16:03;4.82;;;1.90;;
34134;SDS011;20410;55.578;12.968;2023-06-10T14:18:29;3.65;;;1.88;;
34134;SDS011;20410;55.578;12.968;2023-06-10T14:20:54;5.85;;;1.88;;
34134;SDS011;20410;55.578;12.968;2023-06-10T14:23:20;3.67;;;1.83;;
34134;SDS011;20410;55.578;12.968;2023-06-10T14:25:46;4.15;;;1.90;;
34134;SDS011;20410;55.578;12.968;2023-06-10T14:28:11;2.83;;;1.40;;
34134;SDS011;20410;55.578;12.968;2023-06-10T14:30:37;5.70;;;1.90;;
34134;SDS011;20410;55.578;12.968;2023-06-10T14:33:03;4.90;;;1.95;;
34134;SDS011;20410;55.578;12.968;2023-06-10T14:35:28;3.25;;;1.70;;
34134;SDS011;20410;55.578;12.968;2023-06-10T14:37:54;6.47;;;2.22;;
34134;SDS011;20410;55.578;12.968;2023-06-10T14:40:19;4.35;;;1.70;;
34134;SDS011;20410;55.578;12.968;2023-06-10T14:42:49;5.45;;;1.67;;
34134;SDS011;20410;55.578;12.968;2023-06-10T14:45:15;6.88;;;1.90;;
34134;SDS011;20410;55.578;12.968;2023-06-10T14:47:41;7.03;;;1.88;;
34134;SDS011;20410;55.578;12.968;2023-06-10T14:50:06;5.40;;;1.80;;
34134;SDS011;20410;55.578;12.968;2023-06-10T14:52:32;4.22;;;1.67;;